Terminal Aerodrome Forecast
Issued by NWS

Home | Current Version | Previous Version | Text Only | Print | Product List | Glossary On
Versions: 1 2 3 4 5 6 7 8 9 10 11 12 13
000
FTUS42 TJSJ 232339
TAFIST
TAF
TIST 232339Z 2400/2424 08011KT P6SM FEW030
     FM240400 07007KT P6SM VCSH SCT030
     FM241400 12016G22KT P6SM FEW030 SCT050
     FM242200 09011KT P6SM SCT030=

USA.gov is the U.S. government's official web portal to all federal, state and local government web resources and services.